sensor_id;sensor_type;location;lat;lon;timestamp;pressure;altitude;pressure_sealevel;temperature;humidity
68889;BME280;55930;47.412;8.790;2023-07-02T00:02:02;94215.53;;;16.10;100.00
68889;BME280;55930;47.412;8.790;2023-07-02T00:05:22;94207.78;;;16.06;100.00
68889;BME280;55930;47.412;8.790;2023-07-02T00:08:42;94209.16;;;16.13;100.00
68889;BME280;55930;47.412;8.790;2023-07-02T00:12:03;94213.25;;;16.20;100.00
68889;BME280;55930;47.412;8.790;2023-07-02T00:15:23;94216.38;;;16.24;100.00
68889;BME280;55930;47.412;8.790;2023-07-02T00:18:43;94219.78;;;16.24;100.00
68889;BME280;55930;47.412;8.790;2023-07-02T00:22:04;94208.84;;;16.22;100.00
68889;BME280;55930;47.412;8.790;2023-07-02T00:25:24;94208.63;;;16.20;100.00
68889;BME280;55930;47.412;8.790;2023-07-02T00:28:44;94213.09;;;16.12;100.00
68889;BME280;55930;47.412;8.790;2023-07-02T00:32:05;94210.78;;;16.22;100.00
68889;BME280;55930;47.412;8.790;2023-07-02T00:35:25;94205.44;;;16.22;100.00
68889;BME280;55930;47.412;8.790;2023-07-02T00:38:46;94206.22;;;16.17;100.00
68889;BME280;55930;47.412;8.790;2023-07-02T00:42:07;94209.41;;;16.15;100.00
68889;BME280;55930;47.412;8.790;2023-07-02T00:45:28;94212.31;;;16.17;100.00
68889;BME280;55930;47.412;8.790;2023-07-02T00:48:50;94217.88;;;16.19;100.00
68889;BME280;55930;47.412;8.790;2023-07-02T00:52:10;94217.44;;;16.15;100.00
68889;BME280;55930;47.412;8.790;2023-07-02T00:55:31;94222.19;;;16.03;100.00
68889;BME280;55930;47.412;8.790;2023-07-02T00:58:55;94226.25;;;15.86;100.00
68889;BME280;55930;47.412;8.790;2023-07-02T01:02:18;94222.84;;;15.85;100.00
68889;BME280;55930;47.412;8.790;2023-07-02T01:05:38;94225.09;;;15.76;100.00
68889;BME280;55930;47.412;8.790;2023-07-02T01:09:02;94215.13;;;15.76;100.00
68889;BME280;55930;47.412;8.790;2023-07-02T01:12:23;94222.25;;;15.68;100.00
68889;BME280;55930;47.412;8.790;2023-07-02T01:15:43;94224.66;;;15.72;100.00
68889;BME280;55930;47.412;8.790;2023-07-02T01:19:04;94215.75;;;15.63;100.00
68889;BME280;55930;47.412;8.790;2023-07-02T01:22:29;94209.50;;;15.50;100.00
68889;BME280;55930;47.412;8.790;2023-07-02T01:25:51;94216.97;;;15.62;100.00
68889;BME280;55930;47.412;8.790;2023-07-02T01:29:18;94233.06;;;15.51;100.00
68889;BME280;55930;47.412;8.790;2023-07-02T01:32:39;94224.59;;;15.47;100.00
68889;BME280;55930;47.412;8.790;2023-07-02T01:35:59;94225.34;;;15.42;100.00
68889;BME280;55930;47.412;8.790;2023-07-02T01:39:19;94224.13;;;15.43;100.00
68889;BME280;55930;47.412;8.790;2023-07-02T01:42:40;94227.81;;;15.40;100.00
68889;BME280;55930;47.412;8.790;2023-07-02T01:46:00;94229.72;;;15.45;100.00
68889;BME280;55930;47.412;8.790;2023-07-02T01:49:21;94235.78;;;15.46;100.00
68889;BME280;55930;47.412;8.790;2023-07-02T01:52:42;94237.00;;;15.45;100.00
68889;BME280;55930;47.412;8.790;2023-07-02T01:56:02;94230.69;;;15.42;100.00
68889;BME280;55930;47.412;8.790;2023-07-02T01:59:23;94241.44;;;15.37;100.00
68889;BME280;55930;47.412;8.790;2023-07-02T02:02:43;94238.19;;;15.49;100.00
68889;BME280;55930;47.412;8.790;2023-07-02T02:06:03;94242.94;;;15.32;100.00
68889;BME280;55930;47.412;8.790;2023-07-02T02:09:24;94252.44;;;15.27;100.00
68889;BME280;55930;47.412;8.790;2023-07-02T02:12:44;94252.25;;;15.20;100.00
68889;BME280;55930;47.412;8.790;2023-07-02T02:16:04;94255.88;;;15.22;100.00
68889;BME280;55930;47.412;8.790;2023-07-02T02:19:24;94261.94;;;15.23;100.00
68889;BME280;55930;47.412;8.790;2023-07-02T02:22:45;94265.88;;;15.16;100.00
68889;BME280;55930;47.412;8.790;2023-07-02T02:26:05;94264.38;;;15.21;100.00
68889;BME280;55930;47.412;8.790;2023-07-02T02:29:25;94260.72;;;15.24;100.00
68889;BME280;55930;47.412;8.790;2023-07-02T02:32:46;94260.00;;;15.18;100.00
68889;BME280;55930;47.412;8.790;2023-07-02T02:36:06;94261.94;;;15.23;100.00
68889;BME280;55930;47.412;8.790;2023-07-02T02:39:26;94260.97;;;15.20;100.00
68889;BME280;55930;47.412;8.790;2023-07-02T02:42:47;94262.78;;;15.01;100.00
68889;BME280;55930;47.412;8.790;2023-07-02T02:46:07;94259.16;;;14.99;100.00
68889;BME280;55930;47.412;8.790;2023-07-02T02:49:27;94265.50;;;14.96;100.00
68889;BME280;55930;47.412;8.790;2023-07-02T02:52:48;94263.78;;;14.92;100.00
68889;BME280;55930;47.412;8.790;2023-07-02T02:56:08;94270.91;;;14.79;100.00
68889;BME280;55930;47.412;8.790;2023-07-02T02:59:28;94268.97;;;14.79;100.00
68889;BME280;55930;47.412;8.790;2023-07-02T03:02:48;94274.09;;;14.72;100.00
68889;BME280;55930;47.412;8.790;2023-07-02T03:06:09;94276.38;;;14.51;100.00
68889;BME280;55930;47.412;8.790;2023-07-02T03:09:29;94277.53;;;14.67;100.00
68889;BME280;55930;47.412;8.790;2023-07-02T03:12:49;94273.91;;;14.59;100.00
68889;BME280;55930;47.412;8.790;2023-07-02T03:16:10;94278.03;;;14.54;100.00
68889;BME280;55930;47.412;8.790;2023-07-02T03:19:30;94267.88;;;14.52;100.00
68889;BME280;55930;47.412;8.790;2023-07-02T03:22:50;94280.94;;;14.56;100.00
68889;BME280;55930;47.412;8.790;2023-07-02T03:26:13;94276.59;;;14.53;100.00
68889;BME280;55930;47.412;8.790;2023-07-02T03:29:34;94277.75;;;14.74;100.00
68889;BME280;55930;47.412;8.790;2023-07-02T03:32:54;94281.66;;;14.62;100.00
68889;BME280;55930;47.412;8.790;2023-07-02T03:36:15;94284.81;;;14.66;100.00
68889;BME280;55930;47.412;8.790;2023-07-02T03:39:35;94287.00;;;14.62;100.00
68889;BME280;55930;47.412;8.790;2023-07-02T03:42:55;94286.97;;;14.73;100.00
68889;BME280;55930;47.412;8.790;2023-07-02T03:46:16;94295.72;;;14.63;100.00
68889;BME280;55930;47.412;8.790;2023-07-02T03:49:36;94295.28;;;14.59;100.00
68889;BME280;55930;47.412;8.790;2023-07-02T03:52:56;94300.13;;;14.60;100.00
68889;BME280;55930;47.412;8.790;2023-07-02T03:56:19;94299.81;;;14.69;100.00
68889;BME280;55930;47.412;8.790;2023-07-02T03:59:40;94308.31;;;14.73;100.00
68889;BME280;55930;47.412;8.790;2023-07-02T04:03:00;94306.63;;;14.76;100.00
68889;BME280;55930;47.412;8.790;2023-07-02T04:06:22;94311.25;;;14.64;100.00
68889;BME280;55930;47.412;8.790;2023-07-02T04:09:43;94304.22;;;14.67;100.00
68889;BME280;55930;47.412;8.790;2023-07-02T04:13:03;94314.16;;;14.61;100.00
68889;BME280;55930;47.412;8.790;2023-07-02T04:16:24;94315.38;;;14.71;100.00
68889;BME280;55930;47.412;8.790;2023-07-02T04:19:45;94320.69;;;14.76;100.00
68889;BME280;55930;47.412;8.790;2023-07-02T04:23:05;94318.00;;;14.82;100.00
68889;BME280;55930;47.412;8.790;2023-07-02T04:26:26;94317.06;;;14.74;100.00
68889;BME280;55930;47.412;8.790;2023-07-02T04:29:46;94326.97;;;14.84;100.00
68889;BME280;55930;47.412;8.790;2023-07-02T04:33:07;94331.88;;;14.69;100.00
68889;BME280;55930;47.412;8.790;2023-07-02T04:36:27;94337.94;;;14.75;100.00
68889;BME280;55930;47.412;8.790;2023-07-02T04:39:48;94336.78;;;14.60;100.00
68889;BME280;55930;47.412;8.790;2023-07-02T04:43:08;94338.69;;;14.65;100.00
68889;BME280;55930;47.412;8.790;2023-07-02T04:46:29;94331.41;;;14.65;100.00
68889;BME280;55930;47.412;8.790;2023-07-02T04:49:50;94333.81;;;14.69;100.00
68889;BME280;55930;47.412;8.790;2023-07-02T04:53:10;94339.44;;;14.54;100.00
68889;BME280;55930;47.412;8.790;2023-07-02T04:56:31;94332.88;;;14.55;100.00
68889;BME280;55930;47.412;8.790;2023-07-02T04:59:51;94333.38;;;14.59;100.00
68889;BME280;55930;47.412;8.790;2023-07-02T05:03:14;94343.06;;;14.62;100.00
68889;BME280;55930;47.412;8.790;2023-07-02T05:06:34;94344.50;;;14.69;100.00
68889;BME280;55930;47.412;8.790;2023-07-02T05:09:54;94349.13;;;14.68;100.00
68889;BME280;55930;47.412;8.790;2023-07-02T05:13:14;94345.72;;;14.68;100.00
68889;BME280;55930;47.412;8.790;2023-07-02T05:16:35;94354.13;;;14.94;100.00
68889;BME280;55930;47.412;8.790;2023-07-02T05:19:55;94351.53;;;14.72;100.00
68889;BME280;55930;47.412;8.790;2023-07-02T05:23:15;94355.59;;;14.89;100.00
68889;BME280;55930;47.412;8.790;2023-07-02T05:26:36;94352.72;;;14.82;100.00
68889;BME280;55930;47.412;8.790;2023-07-02T05:29:56;94358.94;;;15.01;100.00
68889;BME280;55930;47.412;8.790;2023-07-02T05:33:16;94365.53;;;15.00;100.00
68889;BME280;55930;47.412;8.790;2023-07-02T05:36:37;94364.50;;;15.14;100.00
68889;BME280;55930;47.412;8.790;2023-07-02T05:39:57;94366.16;;;15.23;100.00
68889;BME280;55930;47.412;8.790;2023-07-02T05:43:18;94368.03;;;15.39;100.00
68889;BME280;55930;47.412;8.790;2023-07-02T05:46:38;94365.56;;;15.41;100.00
68889;BME280;55930;47.412;8.790;2023-07-02T05:49:59;94366.28;;;15.47;100.00
68889;BME280;55930;47.412;8.790;2023-07-02T05:53:22;94366.22;;;15.99;100.00
68889;BME280;55930;47.412;8.790;2023-07-02T05:56:42;94368.09;;;15.75;100.00
68889;BME280;55930;47.412;8.790;2023-07-02T06:00:04;94366.63;;;15.79;100.00
68889;BME280;55930;47.412;8.790;2023-07-02T06:03:24;94380.78;;;15.68;100.00
68889;BME280;55930;47.412;8.790;2023-07-02T06:06:47;94378.13;;;15.63;100.00
68889;BME280;55930;47.412;8.790;2023-07-02T06:10:07;94380.03;;;15.68;100.00
68889;BME280;55930;47.412;8.790;2023-07-02T06:13:28;94376.50;;;15.54;100.00
68889;BME280;55930;47.412;8.790;2023-07-02T06:16:48;94378.88;;;15.63;100.00
68889;BME280;55930;47.412;8.790;2023-07-02T06:20:08;94381.19;;;15.78;100.00
68889;BME280;55930;47.412;8.790;2023-07-02T06:23:29;94388.22;;;15.81;100.00
68889;BME280;55930;47.412;8.790;2023-07-02T06:26:52;94392.69;;;15.67;100.00
68889;BME280;55930;47.412;8.790;2023-07-02T06:30:15;94403.44;;;15.62;100.00
68889;BME280;55930;47.412;8.790;2023-07-02T06:33:38;94402.66;;;15.67;100.00
68889;BME280;55930;47.412;8.790;2023-07-02T06:36:58;94411.75;;;15.47;100.00
68889;BME280;55930;47.412;8.790;2023-07-02T06:40:19;94407.03;;;15.64;100.00
68889;BME280;55930;47.412;8.790;2023-07-02T06:43:42;94414.31;;;15.69;100.00
68889;BME280;55930;47.412;8.790;2023-07-02T06:47:03;94418.78;;;15.56;100.00
68889;BME280;55930;47.412;8.790;2023-07-02T06:50:24;94402.94;;;15.58;100.00
68889;BME280;55930;47.412;8.790;2023-07-02T06:53:44;94408.25;;;15.69;100.00
68889;BME280;55930;47.412;8.790;2023-07-02T06:57:04;94416.44;;;15.82;100.00
68889;BME280;55930;47.412;8.790;2023-07-02T07:00:25;94418.44;;;15.71;100.00
68889;BME280;55930;47.412;8.790;2023-07-02T07:03:45;94420.63;;;15.72;100.00
68889;BME280;55930;47.412;8.790;2023-07-02T07:07:05;94421.31;;;15.78;100.00
68889;BME280;55930;47.412;8.790;2023-07-02T07:10:26;94422.34;;;15.69;100.00
68889;BME280;55930;47.412;8.790;2023-07-02T07:13:54;94429.97;;;15.54;100.00
68889;BME280;55930;47.412;8.790;2023-07-02T07:17:14;94423.59;;;15.63;100.00
68889;BME280;55930;47.412;8.790;2023-07-02T07:20:34;94429.44;;;15.61;100.00
68889;BME280;55930;47.412;8.790;2023-07-02T07:23:54;94431.88;;;15.59;100.00
68889;BME280;55930;47.412;8.790;2023-07-02T07:27:15;94435.78;;;15.53;100.00
68889;BME280;55930;47.412;8.790;2023-07-02T07:30:35;94439.22;;;15.42;100.00
68889;BME280;55930;47.412;8.790;2023-07-02T07:33:55;94435.88;;;15.25;100.00
68889;BME280;55930;47.412;8.790;2023-07-02T07:37:16;94438.56;;;15.19;100.00
68889;BME280;55930;47.412;8.790;2023-07-02T07:40:39;94445.44;;;14.92;100.00
68889;BME280;55930;47.412;8.790;2023-07-02T07:43:59;94445.44;;;14.98;100.00
68889;BME280;55930;47.412;8.790;2023-07-02T07:47:21;94447.81;;;15.13;100.00
68889;BME280;55930;47.412;8.790;2023-07-02T07:50:41;94445.81;;;15.30;100.00
68889;BME280;55930;47.412;8.790;2023-07-02T07:54:02;94447.78;;;15.18;100.00
68889;BME280;55930;47.412;8.790;2023-07-02T07:57:23;94450.91;;;15.39;100.00
68889;BME280;55930;47.412;8.790;2023-07-02T08:00:44;94445.88;;;15.13;100.00
68889;BME280;55930;47.412;8.790;2023-07-02T08:04:06;94443.81;;;15.47;100.00
68889;BME280;55930;47.412;8.790;2023-07-02T08:07:27;94441.00;;;15.81;100.00
68889;BME280;55930;47.412;8.790;2023-07-02T08:10:49;94448.97;;;15.92;100.00
68889;BME280;55930;47.412;8.790;2023-07-02T08:14:10;94437.38;;;15.78;100.00
68889;BME280;55930;47.412;8.790;2023-07-02T08:17:30;94438.06;;;15.84;100.00
68889;BME280;55930;47.412;8.790;2023-07-02T08:20:54;94441.19;;;15.94;100.00
68889;BME280;55930;47.412;8.790;2023-07-02T08:24:14;94447.34;;;16.19;100.00
68889;BME280;55930;47.412;8.790;2023-07-02T08:27:35;94444.38;;;16.58;100.00
68889;BME280;55930;47.412;8.790;2023-07-02T08:30:55;94453.00;;;16.10;100.00
68889;BME280;55930;47.412;8.790;2023-07-02T08:34:15;94456.28;;;16.27;100.00
68889;BME280;55930;47.412;8.790;2023-07-02T08:37:36;94453.31;;;16.36;100.00
68889;BME280;55930;47.412;8.790;2023-07-02T08:40:58;94451.16;;;16.89;100.00
68889;BME280;55930;47.412;8.790;2023-07-02T08:44:19;94455.28;;;17.57;100.00
68889;BME280;55930;47.412;8.790;2023-07-02T08:47:40;94450.25;;;17.91;100.00
68889;BME280;55930;47.412;8.790;2023-07-02T08:51:01;94454.47;;;18.69;100.00
68889;BME280;55930;47.412;8.790;2023-07-02T08:54:22;94461.84;;;18.18;100.00
68889;BME280;55930;47.412;8.790;2023-07-02T08:57:47;94461.13;;;18.81;100.00
68889;BME280;55930;47.412;8.790;2023-07-02T09:01:10;94461.09;;;19.39;100.00
68889;BME280;55930;47.412;8.790;2023-07-02T09:04:30;94459.41;;;19.76;100.00
68889;BME280;55930;47.412;8.790;2023-07-02T09:07:51;94457.53;;;20.18;100.00
68889;BME280;55930;47.412;8.790;2023-07-02T09:11:13;94458.09;;;20.03;100.00
68889;BME280;55930;47.412;8.790;2023-07-02T09:14:33;94458.03;;;21.20;100.00
68889;BME280;55930;47.412;8.790;2023-07-02T09:17:54;94460.97;;;21.30;100.00
68889;BME280;55930;47.412;8.790;2023-07-02T09:21:14;94455.22;;;22.13;100.00
68889;BME280;55930;47.412;8.790;2023-07-02T09:24:34;94449.53;;;21.88;95.60
68889;BME280;55930;47.412;8.790;2023-07-02T09:27:54;94459.84;;;24.20;81.17
68889;BME280;55930;47.412;8.790;2023-07-02T09:31:15;94460.13;;;22.30;86.76
68889;BME280;55930;47.412;8.790;2023-07-02T09:34:36;94453.69;;;22.71;88.03
68889;BME280;55930;47.412;8.790;2023-07-02T09:37:58;94458.25;;;21.22;96.35
68889;BME280;55930;47.412;8.790;2023-07-02T09:41:19;94459.28;;;20.49;100.00
68889;BME280;55930;47.412;8.790;2023-07-02T09:44:40;94457.84;;;20.14;100.00
68889;BME280;55930;47.412;8.790;2023-07-02T09:48:03;94454.13;;;19.44;100.00
68889;BME280;55930;47.412;8.790;2023-07-02T09:51:24;94457.34;;;19.56;100.00
68889;BME280;55930;47.412;8.790;2023-07-02T09:54:46;94452.38;;;20.27;100.00
68889;BME280;55930;47.412;8.790;2023-07-02T09:58:08;94449.19;;;20.91;92.83
68889;BME280;55930;47.412;8.790;2023-07-02T10:01:29;94453.03;;;21.60;100.00
68889;BME280;55930;47.412;8.790;2023-07-02T10:04:49;94444.34;;;21.18;92.44
68889;BME280;55930;47.412;8.790;2023-07-02T10:08:15;94446.72;;;21.01;94.72
68889;BME280;55930;47.412;8.790;2023-07-02T10:11:38;94443.78;;;21.84;90.34
68889;BME280;55930;47.412;8.790;2023-07-02T10:14:59;94448.06;;;23.92;86.58
68889;BME280;55930;47.412;8.790;2023-07-02T10:18:25;94441.84;;;24.07;82.92
68889;BME280;55930;47.412;8.790;2023-07-02T10:21:46;94447.19;;;23.12;81.29
68889;BME280;55930;47.412;8.790;2023-07-02T10:25:09;94441.44;;;22.85;83.33
68889;BME280;55930;47.412;8.790;2023-07-02T10:28:29;94443.66;;;21.97;89.45
68889;BME280;55930;47.412;8.790;2023-07-02T10:31:52;94449.78;;;21.54;90.14
68889;BME280;55930;47.412;8.790;2023-07-02T10:35:13;94441.28;;;21.50;92.03
68889;BME280;55930;47.412;8.790;2023-07-02T10:38:33;94447.00;;;22.41;88.00
68889;BME280;55930;47.412;8.790;2023-07-02T10:42:02;94451.78;;;22.05;83.44
68889;BME280;55930;47.412;8.790;2023-07-02T10:45:30;94448.59;;;23.28;78.12
68889;BME280;55930;47.412;8.790;2023-07-02T10:48:54;94449.56;;;23.71;75.97
68889;BME280;55930;47.412;8.790;2023-07-02T10:52:15;94443.47;;;23.70;75.14
68889;BME280;55930;47.412;8.790;2023-07-02T10:55:35;94439.75;;;25.05;70.27
68889;BME280;55930;47.412;8.790;2023-07-02T10:58:55;94449.22;;;24.47;74.80
68889;BME280;55930;47.412;8.790;2023-07-02T11:02:17;94445.41;;;22.76;77.38
68889;BME280;55930;47.412;8.790;2023-07-02T11:05:38;94450.50;;;24.70;70.75
68889;BME280;55930;47.412;8.790;2023-07-02T11:08:59;94438.16;;;24.52;71.39
68889;BME280;55930;47.412;8.790;2023-07-02T11:12:26;94433.53;;;25.12;68.52
68889;BME280;55930;47.412;8.790;2023-07-02T11:15:47;94440.25;;;25.63;67.38
68889;BME280;55930;47.412;8.790;2023-07-02T11:19:08;94427.91;;;26.23;59.06
68889;BME280;55930;47.412;8.790;2023-07-02T11:22:33;94431.72;;;27.29;62.54
68889;BME280;55930;47.412;8.790;2023-07-02T11:25:57;94429.75;;;28.38;53.69
68889;BME280;55930;47.412;8.790;2023-07-02T11:29:18;94420.94;;;28.08;55.18
68889;BME280;55930;47.412;8.790;2023-07-02T11:36:19;94421.53;;;27.78;53.54
68889;BME280;55930;47.412;8.790;2023-07-02T11:39:42;94419.63;;;30.09;48.46
68889;BME280;55930;47.412;8.790;2023-07-02T11:43:06;94416.25;;;30.66;45.88
68889;BME280;55930;47.412;8.790;2023-07-02T11:46:26;94416.44;;;31.54;46.53
68889;BME280;55930;47.412;8.790;2023-07-02T11:49:46;94413.44;;;31.25;44.13
68889;BME280;55930;47.412;8.790;2023-07-02T11:53:07;94419.72;;;29.66;42.76
68889;BME280;55930;47.412;8.790;2023-07-02T11:56:27;94407.38;;;26.12;51.74
68889;BME280;55930;47.412;8.790;2023-07-02T11:59:47;94408.88;;;26.50;53.83
68889;BME280;55930;47.412;8.790;2023-07-02T12:03:09;94404.19;;;29.05;48.11
68889;BME280;55930;47.412;8.790;2023-07-02T12:06:30;94397.00;;;27.30;49.67
68889;BME280;55930;47.412;8.790;2023-07-02T12:09:50;94400.84;;;24.03;59.44
68889;BME280;55930;47.412;8.790;2023-07-02T12:13:10;94397.91;;;26.04;54.95
68889;BME280;55930;47.412;8.790;2023-07-02T12:16:31;94394.56;;;24.75;58.22
68889;BME280;55930;47.412;8.790;2023-07-02T12:19:51;94386.91;;;25.06;55.12
68889;BME280;55930;47.412;8.790;2023-07-02T12:23:11;94386.69;;;25.73;56.72
68889;BME280;55930;47.412;8.790;2023-07-02T12:26:32;94385.53;;;27.41;50.68
68889;BME280;55930;47.412;8.790;2023-07-02T12:29:56;94388.94;;;26.93;54.65
68889;BME280;55930;47.412;8.790;2023-07-02T12:33:16;94378.66;;;25.92;55.69
68889;BME280;55930;47.412;8.790;2023-07-02T12:36:37;94389.63;;;26.38;56.84
68889;BME280;55930;47.412;8.790;2023-07-02T12:39:57;94384.31;;;25.77;55.76
68889;BME280;55930;47.412;8.790;2023-07-02T12:43:17;94390.09;;;26.17;52.71
68889;BME280;55930;47.412;8.790;2023-07-02T12:46:39;94382.63;;;25.47;55.78
68889;BME280;55930;47.412;8.790;2023-07-02T12:50:00;94381.44;;;26.75;52.06
68889;BME280;55930;47.412;8.790;2023-07-02T12:53:20;94378.59;;;26.36;52.85
68889;BME280;55930;47.412;8.790;2023-07-02T12:56:40;94386.41;;;25.51;56.72
68889;BME280;55930;47.412;8.790;2023-07-02T13:00:01;94386.91;;;25.06;57.64
68889;BME280;55930;47.412;8.790;2023-07-02T13:03:21;94394.19;;;24.78;56.69
68889;BME280;55930;47.412;8.790;2023-07-02T13:06:43;94393.91;;;25.43;53.69
68889;BME280;55930;47.412;8.790;2023-07-02T13:10:05;94381.09;;;25.71;55.02
68889;BME280;55930;47.412;8.790;2023-07-02T13:13:26;94372.75;;;25.59;54.30
68889;BME280;55930;47.412;8.790;2023-07-02T13:16:46;94386.94;;;25.84;53.43
68889;BME280;55930;47.412;8.790;2023-07-02T13:20:07;94380.63;;;29.42;46.64
68889;BME280;55930;47.412;8.790;2023-07-02T13:23:29;94377.22;;;27.20;50.75
68889;BME280;55930;47.412;8.790;2023-07-02T13:26:50;94372.09;;;25.95;52.83
68889;BME280;55930;47.412;8.790;2023-07-02T13:30:10;94377.59;;;25.78;51.64
68889;BME280;55930;47.412;8.790;2023-07-02T13:33:31;94383.31;;;24.78;56.14
68889;BME280;55930;47.412;8.790;2023-07-02T13:36:52;94376.31;;;26.33;53.16
68889;BME280;55930;47.412;8.790;2023-07-02T13:40:14;94370.00;;;24.73;55.65
68889;BME280;55930;47.412;8.790;2023-07-02T13:43:36;94382.59;;;24.03;58.70
68889;BME280;55930;47.412;8.790;2023-07-02T13:46:56;94384.44;;;24.51;60.17
68889;BME280;55930;47.412;8.790;2023-07-02T13:50:16;94374.09;;;25.50;55.03
68889;BME280;55930;47.412;8.790;2023-07-02T13:53:36;94375.19;;;25.47;55.08
68889;BME280;55930;47.412;8.790;2023-07-02T13:56:57;94373.81;;;28.89;46.55
68889;BME280;55930;47.412;8.790;2023-07-02T14:00:17;94364.41;;;26.01;53.34
68889;BME280;55930;47.412;8.790;2023-07-02T14:03:38;94373.00;;;25.36;55.60
68889;BME280;55930;47.412;8.790;2023-07-02T14:06:58;94375.88;;;24.37;58.97
68889;BME280;55930;47.412;8.790;2023-07-02T14:10:18;94366.22;;;24.26;58.35
68889;BME280;55930;47.412;8.790;2023-07-02T14:13:39;94360.66;;;23.84;59.88
68889;BME280;55930;47.412;8.790;2023-07-02T14:16:59;94361.63;;;23.72;62.05
68889;BME280;55930;47.412;8.790;2023-07-02T14:20:19;94366.53;;;24.55;59.70
68889;BME280;55930;47.412;8.790;2023-07-02T14:23:40;94360.72;;;24.76;57.30
68889;BME280;55930;47.412;8.790;2023-07-02T15:06:58;94372.78;;;24.83;61.92
68889;BME280;55930;47.412;8.790;2023-07-02T15:10:20;94366.34;;;27.58;52.95
68889;BME280;55930;47.412;8.790;2023-07-02T15:13:41;94366.16;;;26.98;54.02
68889;BME280;55930;47.412;8.790;2023-07-02T15:17:02;94364.91;;;24.52;59.80
68889;BME280;55930;47.412;8.790;2023-07-02T15:20:22;94374.44;;;23.71;61.39
68889;BME280;55930;47.412;8.790;2023-07-02T15:23:43;94373.50;;;23.36;63.76
68889;BME280;55930;47.412;8.790;2023-07-02T15:27:04;94373.03;;;23.22;63.73
68889;BME280;55930;47.412;8.790;2023-07-02T15:30:24;94366.22;;;22.91;65.11
68889;BME280;55930;47.412;8.790;2023-07-02T15:33:45;94372.94;;;23.85;65.08
68889;BME280;55930;47.412;8.790;2023-07-02T15:37:06;94369.66;;;23.94;60.42
68889;BME280;55930;47.412;8.790;2023-07-02T15:40:26;94369.97;;;24.31;60.63
68889;BME280;55930;47.412;8.790;2023-07-02T15:43:46;94372.84;;;23.20;62.38
68889;BME280;55930;47.412;8.790;2023-07-02T15:47:07;94375.03;;;23.14;62.72
68889;BME280;55930;47.412;8.790;2023-07-02T15:50:28;94373.66;;;23.46;63.65
68889;BME280;55930;47.412;8.790;2023-07-02T15:53:48;94368.69;;;23.19;64.42
68889;BME280;55930;47.412;8.790;2023-07-02T15:57:11;94364.44;;;22.86;64.72
68889;BME280;55930;47.412;8.790;2023-07-02T16:00:32;94373.44;;;22.96;65.67
68889;BME280;55930;47.412;8.790;2023-07-02T16:03:53;94369.31;;;22.87;68.92
68889;BME280;55930;47.412;8.790;2023-07-02T16:07:13;94367.16;;;22.40;66.77
68889;BME280;55930;47.412;8.790;2023-07-02T16:10:40;94374.16;;;22.51;68.04
68889;BME280;55930;47.412;8.790;2023-07-02T16:14:01;94368.88;;;23.14;64.99
68889;BME280;55930;47.412;8.790;2023-07-02T16:17:27;94371.44;;;23.04;65.85
68889;BME280;55930;47.412;8.790;2023-07-02T16:20:56;94380.81;;;23.98;62.78
68889;BME280;55930;47.412;8.790;2023-07-02T16:24:20;94371.97;;;23.65;64.13
68889;BME280;55930;47.412;8.790;2023-07-02T16:27:41;94362.81;;;23.46;64.67
68889;BME280;55930;47.412;8.790;2023-07-02T16:31:01;94359.75;;;22.64;65.09
68889;BME280;55930;47.412;8.790;2023-07-02T16:34:23;94358.31;;;22.63;66.40
68889;BME280;55930;47.412;8.790;2023-07-02T16:37:44;94367.50;;;22.29;69.11
68889;BME280;55930;47.412;8.790;2023-07-02T16:41:05;94366.97;;;22.23;68.32
68889;BME280;55930;47.412;8.790;2023-07-02T16:44:28;94363.88;;;22.19;72.17
68889;BME280;55930;47.412;8.790;2023-07-02T16:47:50;94366.03;;;21.98;72.01
68889;BME280;55930;47.412;8.790;2023-07-02T16:51:10;94368.47;;;21.73;73.89
68889;BME280;55930;47.412;8.790;2023-07-02T16:54:30;94375.06;;;21.57;75.52
68889;BME280;55930;47.412;8.790;2023-07-02T16:57:51;94390.97;;;21.24;80.29
68889;BME280;55930;47.412;8.790;2023-07-02T17:01:12;94380.66;;;21.51;74.67
68889;BME280;55930;47.412;8.790;2023-07-02T17:04:32;94380.66;;;22.25;73.93
68889;BME280;55930;47.412;8.790;2023-07-02T17:07:52;94372.09;;;21.75;74.20
68889;BME280;55930;47.412;8.790;2023-07-02T17:11:13;94378.13;;;21.53;74.68
68889;BME280;55930;47.412;8.790;2023-07-02T17:14:34;94382.69;;;21.22;77.14
68889;BME280;55930;47.412;8.790;2023-07-02T17:17:56;94373.88;;;21.22;79.17
68889;BME280;55930;47.412;8.790;2023-07-02T17:21:16;94374.59;;;21.22;80.80
68889;BME280;55930;47.412;8.790;2023-07-02T17:24:39;94382.38;;;20.77;83.09
68889;BME280;55930;47.412;8.790;2023-07-02T17:28:00;94376.19;;;20.89;82.33
68889;BME280;55930;47.412;8.790;2023-07-02T17:31:20;94377.88;;;21.08;81.98
68889;BME280;55930;47.412;8.790;2023-07-02T17:34:41;94379.78;;;20.63;84.33
68889;BME280;55930;47.412;8.790;2023-07-02T17:38:01;94381.38;;;20.59;86.56
68889;BME280;55930;47.412;8.790;2023-07-02T17:41:21;94390.50;;;20.56;88.04
68889;BME280;55930;47.412;8.790;2023-07-02T17:44:43;94387.88;;;20.63;85.81
68889;BME280;55930;47.412;8.790;2023-07-02T17:48:05;94388.88;;;20.53;92.80
68889;BME280;55930;47.412;8.790;2023-07-02T17:51:25;94387.34;;;20.65;88.82
68889;BME280;55930;47.412;8.790;2023-07-02T17:54:48;94383.34;;;20.87;86.46
68889;BME280;55930;47.412;8.790;2023-07-02T17:58:09;94378.19;;;20.96;85.85
68889;BME280;55930;47.412;8.790;2023-07-02T18:01:40;94384.72;;;20.73;87.63
68889;BME280;55930;47.412;8.790;2023-07-02T18:05:01;94383.50;;;20.81;87.31
68889;BME280;55930;47.412;8.790;2023-07-02T18:08:24;94384.25;;;20.61;88.58
68889;BME280;55930;47.412;8.790;2023-07-02T18:11:45;94381.84;;;20.78;88.17
68889;BME280;55930;47.412;8.790;2023-07-02T18:15:07;94382.78;;;20.81;88.61
68889;BME280;55930;47.412;8.790;2023-07-02T18:18:27;94378.91;;;20.69;89.06
68889;BME280;55930;47.412;8.790;2023-07-02T18:21:52;94382.63;;;20.58;92.64